»·PEaware :: N8092H KAVX-KSAN

N8092H :: KAVX-KSAN

FLIGHT INFORMATION

Flight Status: Arrived
Operator: Privately registered:
United States
More flights under this callsign
Pilot: Mark B. (9455)
Aircraft: CESSNA 172 SKYHAWK
(C172)
More flights by this aircraft type
Origin: KAVX Catalina
United States
Destination: KSAN San Diego Intl-Lindbergh
United States
More flights between these airports :: More routes between these airports
Route: SXC V208 OCN V23 MZB
File this flight plan on PilotEdge
Remarks: I8
Altitude:
(Current/Filed)
5,000ft
Speed:
(Current/Filed)
115kts
Departed: 26-Feb-17 06:01 PM
Arrived: 26-Feb-17 07:05 PM
Distance/Time
Traveled:
74nm/1:04
Distance/Time
To Go:
Arrived

Flight Plot

Page will automatically refresh every two minutes.


Map Options




Map Legend


Flown Route
Filed Route
Departure Airport
Arrival Airport
Navaid (VOR, NDB)
Fix

Horizontal Profiles

Position Reports

Time Latitude Longitude Heading Altitude Ground
Speed
26-Feb-17 17:44 33.403292 -118.415954 45 1606ft 0kts
26-Feb-17 17:45 33.403292 -118.415954 45 1606ft 0kts
26-Feb-17 17:46 33.403292 -118.415954 45 1606ft 0kts
26-Feb-17 17:47 33.403292 -118.415954 45 1606ft 0kts
26-Feb-17 17:48 33.403292 -118.415954 45 1606ft 0kts
26-Feb-17 17:49 33.403292 -118.415954 45 1606ft 0kts
26-Feb-17 17:50 33.403292 -118.415954 45 1606ft 0kts
26-Feb-17 17:51 33.403292 -118.415954 45 1606ft 0kts
26-Feb-17 17:52 33.403292 -118.415954 45 1606ft 0kts
26-Feb-17 17:53 33.403292 -118.415954 45 1606ft 0kts
26-Feb-17 17:54 33.403292 -118.415954 45 1606ft 0kts
26-Feb-17 17:55 33.403292 -118.415954 45 1606ft 0kts
26-Feb-17 17:56 33.403292 -118.415954 45 1606ft 0kts
26-Feb-17 17:57 33.403292 -118.415954 45 1606ft 0kts
26-Feb-17 17:58 33.403292 -118.415954 45 1606ft 0kts
26-Feb-17 17:59 33.405845 -118.413619 56 1606ft 15kts
26-Feb-17 18:00 33.407223 -118.411384 348 1606ft 0kts
26-Feb-17 18:01 33.407223 -118.411384 348 1606ft 0kts
26-Feb-17 18:02 33.401356 -118.421637 229 1915ft 80kts
26-Feb-17 18:03 33.384460 -118.431079 126 2955ft 81kts
26-Feb-17 18:04 33.374099 -118.407586 107 3946ft 82kts
26-Feb-17 18:05 33.370297 -118.380527 99 4881ft 83kts
26-Feb-17 18:06 33.365489 -118.346788 97 5039ft 111kts
26-Feb-17 18:07 33.360130 -118.307774 98 4974ft 118kts
26-Feb-17 18:08 33.354745 -118.269007 97 4931ft 121kts
26-Feb-17 18:09 33.350372 -118.229994 97 4951ft 121kts
26-Feb-17 18:10 33.345240 -118.190866 98 4990ft 116kts
26-Feb-17 18:11 33.340293 -118.151633 98 4936ft 119kts
26-Feb-17 18:12 33.334947 -118.112695 93 4890ft 123kts
26-Feb-17 18:13 33.330155 -118.073948 100 4932ft 121kts
26-Feb-17 18:14 33.322915 -118.035260 97 4959ft 117kts
26-Feb-17 18:15 33.317980 -117.996557 96 5022ft 116kts
26-Feb-17 18:16 33.312951 -117.957442 98 4985ft 117kts
26-Feb-17 18:17 33.308736 -117.918197 97 4958ft 120kts
26-Feb-17 18:18 33.304112 -117.878974 98 4965ft 118kts
26-Feb-17 18:19 33.298336 -117.840169 98 4980ft 118kts
26-Feb-17 18:20 33.293403 -117.801171 98 4938ft 122kts
26-Feb-17 18:21 33.288114 -117.762098 100 4975ft 118kts
26-Feb-17 18:22 33.282914 -117.723085 96 4958ft 119kts
26-Feb-17 18:23 33.278341 -117.684098 100 4966ft 119kts
26-Feb-17 18:24 33.272741 -117.645243 98 5009ft 116kts
26-Feb-17 18:25 33.267437 -117.606233 100 4965ft 120kts
26-Feb-17 18:26 33.261446 -117.567472 99 4944ft 122kts
26-Feb-17 18:27 33.258172 -117.546654 100 4938ft 118kts
26-Feb-17 18:28 33.253862 -117.513665 98 4940ft 118kts
26-Feb-17 18:29 33.248620 -117.474576 98 4943ft 118kts
26-Feb-17 18:30 33.244374 -117.435357 98 4929ft 119kts
26-Feb-17 18:31 33.223647 -117.409689 163 4883ft 121kts
26-Feb-17 18:32 33.191841 -117.397864 161 4877ft 118kts
26-Feb-17 18:33 33.161267 -117.383703 156 4919ft 117kts
26-Feb-17 18:34 33.130464 -117.369974 158 4914ft 119kts
26-Feb-17 18:35 33.099037 -117.357647 162 4929ft 117kts
26-Feb-17 18:36 33.067850 -117.345278 158 4925ft 120kts
26-Feb-17 18:37 33.036731 -117.331922 161 4923ft 120kts
26-Feb-17 18:38 33.005585 -117.319074 160 4943ft 119kts
26-Feb-17 18:39 32.974281 -117.306237 159 4973ft 114kts
26-Feb-17 18:40 32.943447 -117.291798 156 4922ft 118kts
26-Feb-17 18:41 32.912065 -117.280016 161 4940ft 117kts
26-Feb-17 18:42 32.880850 -117.266942 156 4938ft 117kts
26-Feb-17 18:43 32.850306 -117.253145 161 4952ft 119kts
26-Feb-17 18:44 32.819101 -117.239842 146 4947ft 118kts
26-Feb-17 18:45 32.808477 -117.203701 101 4935ft 118kts
26-Feb-17 18:46 32.803115 -117.164884 96 4913ft 119kts
26-Feb-17 18:47 32.797529 -117.126110 102 4950ft 116kts
26-Feb-17 18:48 32.790866 -117.087680 100 4900ft 120kts
26-Feb-17 18:49 32.784860 -117.049171 97 4928ft 119kts
26-Feb-17 18:50 32.779536 -117.010148 98 4901ft 119kts
26-Feb-17 18:51 32.774160 -116.969780 101 4603ft 130kts
26-Feb-17 18:52 32.767023 -116.926651 98 3984ft 133kts
26-Feb-17 18:53 32.749817 -116.896683 183 3932ft 124kts
26-Feb-17 18:54 32.717296 -116.903834 190 3947ft 105kts
26-Feb-17 18:55 32.693228 -116.913968 247 3893ft 90kts
26-Feb-17 18:56 32.684785 -116.941149 249 4018ft 90kts
26-Feb-17 18:57 32.680556 -116.969507 271 4035ft 90kts
26-Feb-17 18:58 32.686687 -116.997540 284 3489ft 86kts
26-Feb-17 18:59 32.693381 -117.024990 286 2945ft 86kts
26-Feb-17 19:00 32.699579 -117.052394 287 2516ft 86kts
26-Feb-17 19:01 32.707129 -117.079177 285 2039ft 85kts
26-Feb-17 19:02 32.712973 -117.106301 284 1623ft 84kts
26-Feb-17 19:03 32.719859 -117.133070 287 935ft 86kts
26-Feb-17 19:04 32.726227 -117.160390 286 476ft 78kts
26-Feb-17 19:05 32.731888 -117.182729 285 34ft 55kts
26-Feb-17 19:06 32.732489 -117.188688 233 21ft 0kts

Navigation Log

Ident Type
Flight plan parsing failed, navigation log unavailable